sensor_id;sensor_type;location;lat;lon;timestamp;pressure;altitude;pressure_sealevel;temperature;humidity
62374;BME280;48409;49.030;1.820;2022-10-16T09:21:48;100677.22;;;17.75;65.11
62374;BME280;48409;49.030;1.820;2022-10-16T09:24:16;100676.25;;;17.77;65.21
62374;BME280;48409;49.030;1.820;2022-10-16T09:26:42;100664.53;;;17.79;65.07
62374;BME280;48409;49.030;1.820;2022-10-16T09:29:12;100661.50;;;17.84;65.10
62374;BME280;48409;49.030;1.820;2022-10-16T09:31:39;100654.09;;;17.87;65.16
62374;BME280;48409;49.030;1.820;2022-10-16T09:34:06;100658.13;;;17.93;65.12
62374;BME280;48409;49.030;1.820;2022-10-16T09:36:41;100670.13;;;17.99;65.28
62374;BME280;48409;49.030;1.820;2022-10-16T09:39:09;100683.09;;;18.04;65.16
62374;BME280;48409;49.030;1.820;2022-10-16T09:41:40;100691.47;;;18.10;65.31
62374;BME280;48409;49.030;1.820;2022-10-16T09:44:30;100685.53;;;18.18;65.27
62374;BME280;48409;49.030;1.820;2022-10-16T09:47:26;100681.41;;;18.25;65.31
62374;BME280;48409;49.030;1.820;2022-10-16T09:49:59;100687.25;;;18.31;65.28
62374;BME280;48409;49.030;1.820;2022-10-16T09:52:28;100685.06;;;18.36;65.26
62374;BME280;48409;49.030;1.820;2022-10-16T09:54:59;100683.59;;;18.43;65.21
62374;BME280;48409;49.030;1.820;2022-10-16T09:57:25;100682.13;;;18.50;65.35
62374;BME280;48409;49.030;1.820;2022-10-16T10:00:08;100679.59;;;18.60;65.45
62374;BME280;48409;49.030;1.820;2022-10-16T10:02:35;100692.28;;;18.68;65.74
62374;BME280;48409;49.030;1.820;2022-10-16T10:05:13;100682.44;;;18.80;65.72
62374;BME280;48409;49.030;1.820;2022-10-16T10:07:43;100681.56;;;18.91;65.88
62374;BME280;48409;49.030;1.820;2022-10-16T10:10:21;100670.13;;;19.00;65.63
62374;BME280;48409;49.030;1.820;2022-10-16T10:12:47;100673.03;;;19.09;65.54
62374;BME280;48409;49.030;1.820;2022-10-16T10:15:14;100668.91;;;19.16;65.53
62374;BME280;48409;49.030;1.820;2022-10-16T10:17:48;100670.94;;;19.24;65.43
62374;BME280;48409;49.030;1.820;2022-10-16T10:20:23;100660.56;;;19.30;65.18
62374;BME280;48409;49.030;1.820;2022-10-16T10:22:49;100663.69;;;19.36;65.05
62374;BME280;48409;49.030;1.820;2022-10-16T10:25:57;100665.88;;;19.42;64.92
62374;BME280;48409;49.030;1.820;2022-10-16T10:37:07;100627.56;;;19.53;64.43
62374;BME280;48409;49.030;1.820;2022-10-16T10:42:51;100623.78;;;19.55;64.16
62374;BME280;48409;49.030;1.820;2022-10-16T10:50:59;100633.25;;;19.60;63.82
62374;BME280;48409;49.030;1.820;2022-10-16T10:54:06;100632.97;;;19.63;64.08
62374;BME280;48409;49.030;1.820;2022-10-16T11:00:00;100642.16;;;19.70;63.98
62374;BME280;48409;49.030;1.820;2022-10-16T11:03:27;100629.34;;;19.74;64.06
62374;BME280;48409;49.030;1.820;2022-10-16T11:05:37;100645.72;;;19.80;64.10
62374;BME280;48409;49.030;1.820;2022-10-16T11:08:19;100648.00;;;19.85;63.87
62374;BME280;48409;49.030;1.820;2022-10-16T11:10:51;100644.91;;;19.90;63.95
62374;BME280;48409;49.030;1.820;2022-10-16T11:16:17;100645.84;;;20.00;63.70
62374;BME280;48409;49.030;1.820;2022-10-16T11:21:56;100651.81;;;20.14;63.81
62374;BME280;48409;49.030;1.820;2022-10-16T11:24:35;100643.38;;;20.18;63.72
62374;BME280;48409;49.030;1.820;2022-10-16T11:27:08;100637.63;;;20.23;63.42
62374;BME280;48409;49.030;1.820;2022-10-16T11:29:46;100636.38;;;20.27;63.32
62374;BME280;48409;49.030;1.820;2022-10-16T11:33:00;100624.56;;;20.30;63.25
62374;BME280;48409;49.030;1.820;2022-10-16T11:35:39;100624.31;;;20.33;63.31
62374;BME280;48409;49.030;1.820;2022-10-16T11:38:16;100615.28;;;20.34;62.95
62374;BME280;48409;49.030;1.820;2022-10-16T11:40:51;100607.00;;;20.37;63.17
62374;BME280;48409;49.030;1.820;2022-10-16T11:43:25;100607.69;;;20.39;62.85
62374;BME280;48409;49.030;1.820;2022-10-16T11:46:01;100610.94;;;20.43;63.17
62374;BME280;48409;49.030;1.820;2022-10-16T11:48:48;100602.78;;;20.44;62.92
62374;BME280;48409;49.030;1.820;2022-10-16T11:51:36;100615.88;;;20.47;62.90
62374;BME280;48409;49.030;1.820;2022-10-16T11:54:15;100606.03;;;20.48;62.33
62374;BME280;48409;49.030;1.820;2022-10-16T11:56:48;100606.03;;;20.48;62.47
62374;BME280;48409;49.030;1.820;2022-10-16T11:59:46;100600.53;;;20.50;62.50
62374;BME280;48409;49.030;1.820;2022-10-16T12:04:59;100598.97;;;20.47;62.04
62374;BME280;48409;49.030;1.820;2022-10-16T12:07:37;100600.97;;;20.45;61.78
62374;BME280;48409;49.030;1.820;2022-10-16T12:10:20;100606.44;;;20.43;61.91
62374;BME280;48409;49.030;1.820;2022-10-16T12:12:46;100604.03;;;20.40;61.50
62374;BME280;48409;49.030;1.820;2022-10-16T12:15:29;100602.34;;;20.39;61.87
62374;BME280;48409;49.030;1.820;2022-10-16T12:17:55;100596.13;;;20.39;61.53
62374;BME280;48409;49.030;1.820;2022-10-16T12:20:32;100598.13;;;20.37;61.70
62374;BME280;48409;49.030;1.820;2022-10-16T12:23:07;100596.44;;;20.35;61.57
62374;BME280;48409;49.030;1.820;2022-10-16T12:25:54;100582.34;;;20.33;61.59
62374;BME280;48409;49.030;1.820;2022-10-16T12:28:22;100578.72;;;20.34;61.45
62374;BME280;48409;49.030;1.820;2022-10-16T12:31:00;100583.19;;;20.34;61.67
62374;BME280;48409;49.030;1.820;2022-10-16T12:33:42;100580.66;;;20.32;61.58
62374;BME280;48409;49.030;1.820;2022-10-16T12:36:28;100568.13;;;20.33;61.78
62374;BME280;48409;49.030;1.820;2022-10-16T12:38:54;100571.63;;;20.33;61.58
62374;BME280;48409;49.030;1.820;2022-10-16T12:41:29;100575.31;;;20.32;61.61
62374;BME280;48409;49.030;1.820;2022-10-16T12:43:56;100564.59;;;20.32;61.37
62374;BME280;48409;49.030;1.820;2022-10-16T12:46:33;100567.00;;;20.35;61.60
62374;BME280;48409;49.030;1.820;2022-10-16T12:51:38;100558.69;;;20.39;61.24
62374;BME280;48409;49.030;1.820;2022-10-16T12:59:28;100558.16;;;20.45;61.53
62374;BME280;48409;49.030;1.820;2022-10-16T13:05:58;100558.59;;;20.50;61.76
62374;BME280;48409;49.030;1.820;2022-10-16T13:17:26;100539.28;;;20.56;61.53
62374;BME280;48409;49.030;1.820;2022-10-16T13:20:12;100539.28;;;20.56;61.68
62374;BME280;48409;49.030;1.820;2022-10-16T13:23:03;100546.22;;;20.59;61.54
62374;BME280;48409;49.030;1.820;2022-10-16T13:28:28;100531.72;;;20.61;61.47
62374;BME280;48409;49.030;1.820;2022-10-16T13:30:58;100538.75;;;20.63;61.47
62374;BME280;48409;49.030;1.820;2022-10-16T13:35:59;100546.63;;;20.64;61.44
62374;BME280;48409;49.030;1.820;2022-10-16T13:38:36;100545.50;;;20.67;61.37
62374;BME280;48409;49.030;1.820;2022-10-16T13:41:12;100552.53;;;20.68;61.51
62374;BME280;48409;49.030;1.820;2022-10-16T13:43:45;100562.13;;;20.70;61.42
62374;BME280;48409;49.030;1.820;2022-10-16T13:46:18;100551.41;;;20.70;61.46
62374;BME280;48409;49.030;1.820;2022-10-16T13:48:44;100551.28;;;20.72;61.35
62374;BME280;48409;49.030;1.820;2022-10-16T13:51:18;100545.91;;;20.72;61.46
62374;BME280;48409;49.030;1.820;2022-10-16T13:53:46;100551.28;;;20.72;61.38
62374;BME280;48409;49.030;1.820;2022-10-16T13:56:17;100551.00;;;20.75;61.30
62374;BME280;48409;49.030;1.820;2022-10-16T13:59:04;100549.16;;;20.76;61.54
62374;BME280;48409;49.030;1.820;2022-10-16T14:01:45;100550.00;;;20.76;61.50
62374;BME280;48409;49.030;1.820;2022-10-16T14:04:12;100544.66;;;20.76;61.27
62374;BME280;48409;49.030;1.820;2022-10-16T14:06:44;100541.25;;;20.74;61.20
62374;BME280;48409;49.030;1.820;2022-10-16T14:09:24;100540.28;;;20.75;61.42
62374;BME280;48409;49.030;1.820;2022-10-16T14:11:57;100539.44;;;20.74;61.21
62374;BME280;48409;49.030;1.820;2022-10-16T14:14:25;100536.22;;;20.71;61.40
62374;BME280;48409;49.030;1.820;2022-10-16T14:16:52;100530.84;;;20.71;61.39
62374;BME280;48409;49.030;1.820;2022-10-16T14:19:26;100544.94;;;20.73;61.40
62374;BME280;48409;49.030;1.820;2022-10-16T14:21:53;100540.44;;;20.73;61.51
62374;BME280;48409;49.030;1.820;2022-10-16T14:24:30;100536.63;;;20.76;61.46
62374;BME280;48409;49.030;1.820;2022-10-16T14:26:56;100537.31;;;20.78;61.53
62374;BME280;48409;49.030;1.820;2022-10-16T14:29:23;100539.03;;;20.79;61.35
62374;BME280;48409;49.030;1.820;2022-10-16T14:32:04;100531.69;;;20.81;61.58
62374;BME280;48409;49.030;1.820;2022-10-16T14:34:35;100536.03;;;20.82;61.39
62374;BME280;48409;49.030;1.820;2022-10-16T14:37:15;100542.94;;;20.85;61.36
62374;BME280;48409;49.030;1.820;2022-10-16T14:39:49;100545.47;;;20.86;61.39
62374;BME280;48409;49.030;1.820;2022-10-16T14:42:23;100546.38;;;20.87;61.41
62374;BME280;48409;49.030;1.820;2022-10-16T14:44:51;100550.59;;;20.90;61.39
62374;BME280;48409;49.030;1.820;2022-10-16T14:47:20;100542.56;;;20.90;61.46
62374;BME280;48409;49.030;1.820;2022-10-16T14:49:50;100546.09;;;20.90;61.35
62374;BME280;48409;49.030;1.820;2022-10-16T14:52:16;100548.59;;;20.92;61.29
62374;BME280;48409;49.030;1.820;2022-10-16T14:54:48;100538.75;;;20.92;61.31
62374;BME280;48409;49.030;1.820;2022-10-16T14:57:23;100534.25;;;20.93;61.44
62374;BME280;48409;49.030;1.820;2022-10-16T14:59:54;100542.28;;;20.93;61.37
62374;BME280;48409;49.030;1.820;2022-10-16T15:02:32;100536.78;;;20.94;61.47
62374;BME280;48409;49.030;1.820;2022-10-16T15:05:15;100535.94;;;20.94;61.38
62374;BME280;48409;49.030;1.820;2022-10-16T15:07:41;100537.63;;;20.95;61.31
62374;BME280;48409;49.030;1.820;2022-10-16T15:10:10;100537.63;;;20.95;61.52
62374;BME280;48409;49.030;1.820;2022-10-16T15:12:39;100535.81;;;20.95;61.36
62374;BME280;48409;49.030;1.820;2022-10-16T15:15:25;100533.94;;;20.96;61.53
62374;BME280;48409;49.030;1.820;2022-10-16T15:17:53;100526.91;;;20.95;61.33
62374;BME280;48409;49.030;1.820;2022-10-16T15:20:25;100527.78;;;20.95;61.05
62374;BME280;48409;49.030;1.820;2022-10-16T15:22:50;100525.09;;;20.95;61.25
62374;BME280;48409;49.030;1.820;2022-10-16T15:25:31;100528.59;;;20.96;61.49
62374;BME280;48409;49.030;1.820;2022-10-16T15:28:01;100520.72;;;20.94;61.31
62374;BME280;48409;49.030;1.820;2022-10-16T15:30:27;100519.88;;;20.94;61.28
62374;BME280;48409;49.030;1.820;2022-10-16T15:32:53;100518.19;;;20.93;61.33
62374;BME280;48409;49.030;1.820;2022-10-16T15:35:19;100520.88;;;20.93;61.22
62374;BME280;48409;49.030;1.820;2022-10-16T15:37:46;100523.81;;;20.90;61.07
62374;BME280;48409;49.030;1.820;2022-10-16T15:40:11;100523.81;;;20.90;61.11
62374;BME280;48409;49.030;1.820;2022-10-16T15:42:37;100523.81;;;20.90;61.26
62374;BME280;48409;49.030;1.820;2022-10-16T15:45:02;100522.16;;;20.89;61.11
62374;BME280;48409;49.030;1.820;2022-10-16T15:47:29;100518.59;;;20.88;61.01
62374;BME280;48409;49.030;1.820;2022-10-16T15:49:57;100526.75;;;20.86;61.27
62374;BME280;48409;49.030;1.820;2022-10-16T15:52:23;100524.06;;;20.86;61.05
62374;BME280;48409;49.030;1.820;2022-10-16T15:54:59;100527.63;;;20.87;61.35
